createdAt,value
2023-02-09T00:01:58.660Z,20.38
2023-02-09T00:04:25.636Z,20.31
2023-02-09T00:06:52.579Z,20.25
2023-02-09T00:09:19.488Z,20.25
2023-02-09T00:11:50.502Z,20.19
2023-02-09T00:14:19.110Z,20.19
2023-02-09T00:16:47.333Z,20.13
2023-02-09T00:19:14.301Z,20.13
2023-02-09T00:21:41.268Z,20.13
2023-02-09T00:24:08.262Z,20.06
2023-02-09T00:26:35.177Z,20.00
2023-02-09T00:29:02.159Z,20.00
2023-02-09T00:31:29.155Z,19.94
2023-02-09T00:33:56.127Z,19.88
2023-02-09T00:36:23.093Z,19.81
2023-02-09T00:38:50.113Z,19.75
2023-02-09T00:41:20.735Z,19.75
2023-02-09T00:43:47.671Z,19.69
2023-02-09T00:46:15.130Z,19.69
2023-02-09T00:48:42.242Z,19.63
2023-02-09T00:51:09.169Z,19.63
2023-02-09T00:53:36.088Z,19.63
2023-02-09T00:56:03.027Z,19.56
2023-02-09T00:58:29.928Z,19.56
2023-02-09T01:00:58.334Z,19.50
2023-02-09T01:03:25.278Z,19.50
2023-02-09T01:05:52.220Z,19.44
2023-02-09T01:08:19.161Z,19.44
2023-02-09T01:10:46.475Z,19.44
2023-02-09T01:13:13.675Z,19.38
2023-02-09T01:15:41.512Z,19.38
2023-02-09T01:18:08.474Z,19.31
2023-02-09T01:20:35.424Z,19.31
2023-02-09T01:23:03.352Z,19.25
2023-02-09T01:25:30.256Z,19.31
2023-02-09T01:27:57.569Z,19.25
2023-02-09T01:30:24.595Z,19.25
2023-02-09T01:32:51.540Z,19.19
2023-02-09T01:35:18.466Z,19.13
2023-02-09T01:37:45.454Z,19.13
2023-02-09T01:40:12.412Z,19.06
2023-02-09T01:42:39.328Z,19.06
2023-02-09T01:45:06.261Z,19.00
2023-02-09T01:47:33.168Z,19.00
2023-02-09T01:50:00.111Z,18.94
2023-02-09T01:52:27.072Z,18.94
2023-02-09T01:54:53.983Z,18.88
2023-02-09T01:57:20.887Z,18.88
2023-02-09T01:59:47.784Z,18.88
2023-02-09T02:02:14.781Z,18.81
2023-02-09T02:04:41.710Z,18.81
2023-02-09T02:07:08.698Z,18.75
2023-02-09T02:09:35.599Z,18.75
2023-02-09T02:12:02.525Z,18.75
2023-02-09T02:14:29.464Z,18.75
2023-02-09T02:16:59.244Z,18.69
2023-02-09T02:19:27.345Z,18.69
2023-02-09T02:21:54.294Z,18.63
2023-02-09T02:24:21.212Z,18.63
2023-02-09T02:26:48.119Z,18.63
2023-02-09T02:29:15.078Z,18.63
2023-02-09T02:31:42.371Z,18.69
2023-02-09T02:34:09.349Z,18.63
2023-02-09T02:36:36.264Z,18.63
2023-02-09T02:39:03.185Z,18.56
2023-02-09T02:41:30.129Z,18.50
2023-02-09T02:43:57.391Z,18.50
2023-02-09T02:46:24.326Z,18.44
2023-02-09T02:48:51.246Z,18.44
2023-02-09T02:51:18.172Z,18.38
2023-02-09T02:53:45.104Z,18.38
2023-02-09T02:56:12.037Z,18.38
2023-02-09T02:58:39.008Z,18.31
2023-02-09T03:01:05.954Z,18.31
2023-02-09T03:03:32.878Z,18.31
2023-02-09T03:05:59.778Z,18.25
2023-02-09T03:08:26.720Z,18.25
2023-02-09T03:10:53.627Z,18.25
2023-02-09T03:13:20.544Z,18.25
2023-02-09T03:15:47.523Z,18.19
2023-02-09T03:18:14.485Z,18.19
2023-02-09T03:20:42.407Z,18.19
2023-02-09T03:23:09.352Z,18.13
2023-02-09T03:25:36.342Z,18.13
2023-02-09T03:28:03.307Z,18.13
2023-02-09T03:30:30.330Z,18.13
2023-02-09T03:32:59.114Z,18.13
2023-02-09T03:35:26.044Z,18.19
2023-02-09T03:37:52.961Z,18.19
2023-02-09T03:40:19.910Z,18.13
2023-02-09T03:42:47.293Z,18.13
2023-02-09T03:45:14.256Z,18.06
2023-02-09T03:47:41.209Z,18.06
2023-02-09T03:50:08.111Z,18.00
2023-02-09T03:52:35.051Z,18.00
2023-02-09T03:55:01.986Z,17.94
2023-02-09T03:57:29.509Z,17.94
2023-02-09T03:59:57.338Z,17.94
2023-02-09T04:02:24.262Z,17.88
2023-02-09T04:04:51.565Z,17.88
2023-02-09T04:07:18.640Z,17.88
2023-02-09T04:09:45.744Z,17.88
2023-02-09T04:12:12.706Z,17.81
2023-02-09T04:14:39.614Z,17.81
2023-02-09T04:17:06.554Z,17.81
2023-02-09T04:19:33.475Z,17.81
2023-02-09T04:22:00.665Z,17.81
2023-02-09T04:24:27.635Z,17.94
2023-02-09T04:26:54.564Z,20.94
2023-02-09T04:29:24.279Z,27.94
2023-02-09T04:31:51.226Z,31.00
2023-02-09T04:34:18.178Z,31.69
2023-02-09T04:36:45.129Z,31.81
2023-02-09T04:39:12.031Z,31.63
2023-02-09T04:41:38.952Z,31.44
2023-02-09T04:44:05.934Z,31.44
2023-02-09T04:46:32.876Z,30.50
2023-02-09T04:48:59.800Z,28.19
2023-02-09T04:51:27.347Z,25.94
2023-02-09T04:53:54.319Z,24.25
2023-02-09T04:56:24.393Z,23.13
2023-02-09T04:58:51.339Z,22.38
2023-02-09T05:01:18.383Z,21.88
2023-02-09T05:03:45.461Z,21.44
2023-02-09T05:06:12.481Z,21.19
2023-02-09T05:08:39.372Z,20.50
2023-02-09T05:11:06.302Z,20.81
2023-02-09T05:13:33.226Z,25.81
2023-02-09T05:16:00.137Z,30.19
2023-02-09T05:18:27.689Z,31.94
2023-02-09T05:20:54.646Z,32.50
2023-02-09T05:23:21.643Z,28.81
2023-02-09T05:25:48.625Z,25.50
2023-02-09T05:28:15.685Z,26.88
2023-02-09T05:30:42.724Z,31.00
2023-02-09T05:33:09.676Z,32.81
2023-02-09T05:35:36.601Z,33.38
2023-02-09T05:38:03.512Z,30.81
2023-02-09T05:40:30.423Z,27.63
2023-02-09T05:42:57.365Z,28.44
2023-02-09T05:45:24.316Z,32.19
2023-02-09T05:47:51.243Z,34.25
2023-02-09T05:50:18.839Z,35.00
2023-02-09T05:52:46.093Z,33.81
2023-02-09T05:55:13.025Z,30.19
2023-02-09T05:57:39.937Z,31.00
2023-02-09T06:00:06.901Z,33.81
2023-02-09T06:02:34.089Z,35.13
2023-02-09T06:05:01.057Z,35.00
2023-02-09T06:07:28.022Z,33.38
2023-02-09T06:09:54.924Z,30.94
2023-02-09T06:12:22.398Z,32.50
2023-02-09T06:14:49.325Z,34.81
2023-02-09T06:17:16.292Z,35.88
2023-02-09T06:19:43.595Z,35.56
2023-02-09T06:22:10.518Z,35.00
2023-02-09T06:24:37.462Z,34.88
2023-02-09T06:27:04.373Z,35.06
2023-02-09T06:29:32.391Z,35.19
2023-02-09T06:31:59.445Z,35.56
2023-02-09T06:34:29.484Z,35.81
2023-02-09T06:36:56.426Z,36.06
2023-02-09T06:39:23.334Z,36.25
2023-02-09T06:41:50.273Z,36.50
2023-02-09T06:44:17.227Z,36.63
2023-02-09T06:46:44.165Z,36.88
2023-02-09T06:49:11.102Z,37.06
2023-02-09T06:51:38.809Z,37.25
2023-02-09T06:54:05.940Z,37.44
2023-02-09T06:56:32.943Z,37.63
2023-02-09T06:58:59.873Z,37.81
2023-02-09T07:01:26.917Z,38.00
2023-02-09T07:03:54.426Z,38.13
2023-02-09T07:06:21.392Z,38.25
2023-02-09T07:08:49.619Z,38.50
2023-02-09T07:11:16.586Z,38.69
2023-02-09T07:13:43.511Z,38.75
2023-02-09T07:16:10.488Z,38.75
2023-02-09T07:18:43.911Z,38.63
2023-02-09T07:21:10.838Z,38.63
2023-02-09T07:23:39.766Z,38.69
2023-02-09T07:26:06.710Z,38.75
2023-02-09T07:28:34.753Z,38.63
2023-02-09T07:31:02.050Z,38.56
2023-02-09T07:33:29.103Z,38.56
2023-02-09T07:35:56.025Z,38.56
2023-02-09T07:38:23.018Z,38.63
2023-02-09T07:40:50.047Z,38.63
2023-02-09T07:43:17.016Z,38.69
2023-02-09T07:45:44.350Z,38.69
2023-02-09T07:48:11.470Z,38.75
2023-02-09T07:50:38.461Z,38.81
2023-02-09T07:53:05.396Z,38.81
2023-02-09T07:55:32.368Z,38.88
2023-02-09T07:57:59.307Z,38.94
2023-02-09T08:00:26.249Z,38.88
2023-02-09T08:02:53.206Z,38.63
2023-02-09T08:05:20.131Z,38.50
2023-02-09T08:07:50.737Z,38.31
2023-02-09T08:10:17.819Z,38.13
2023-02-09T08:12:44.737Z,37.88
2023-02-09T08:15:11.665Z,37.63
2023-02-09T08:17:38.581Z,37.56
2023-02-09T08:20:05.550Z,37.56
2023-02-09T08:22:32.643Z,37.56
2023-02-09T08:24:59.574Z,37.19
2023-02-09T08:27:26.511Z,36.50
2023-02-09T08:29:53.448Z,36.81
2023-02-09T08:32:20.427Z,37.19
2023-02-09T08:34:49.372Z,37.38
2023-02-09T08:37:18.285Z,37.44
2023-02-09T08:39:45.322Z,37.56
2023-02-09T08:42:12.766Z,37.69
2023-02-09T08:44:39.685Z,37.75
2023-02-09T08:47:06.666Z,37.88
2023-02-09T08:49:33.624Z,37.94
2023-02-09T08:52:01.343Z,38.06
2023-02-09T08:54:28.272Z,38.13
2023-02-09T08:56:55.208Z,38.19
2023-02-09T08:59:22.137Z,38.31
2023-02-09T09:01:49.100Z,38.38
2023-02-09T09:04:16.026Z,38.50
2023-02-09T09:06:42.971Z,38.56
2023-02-09T09:09:09.896Z,38.63
2023-02-09T09:11:36.832Z,38.69
2023-02-09T09:14:03.790Z,38.75
2023-02-09T09:16:30.874Z,38.81
2023-02-09T09:18:57.869Z,38.81
2023-02-09T09:21:24.791Z,38.75
2023-02-09T09:23:51.763Z,38.81
2023-02-09T09:26:18.795Z,38.81
2023-02-09T09:28:51.580Z,38.56
2023-02-09T09:31:18.650Z,38.44
2023-02-09T09:33:46.693Z,38.44
2023-02-09T09:36:13.611Z,38.44
2023-02-09T09:38:40.554Z,38.44
2023-02-09T09:41:07.578Z,38.44
2023-02-09T09:43:35.373Z,38.44
2023-02-09T09:46:02.373Z,38.44
2023-02-09T09:48:29.363Z,38.44
2023-02-09T09:50:56.289Z,38.50
2023-02-09T09:53:23.194Z,38.50
2023-02-09T09:55:50.865Z,38.56
2023-02-09T09:58:17.957Z,38.56
2023-02-09T10:00:48.454Z,38.44
2023-02-09T10:03:15.746Z,38.25
2023-02-09T10:05:42.708Z,38.00
2023-02-09T10:08:10.582Z,37.81
2023-02-09T10:10:38.381Z,37.63
2023-02-09T10:13:05.301Z,37.38
2023-02-09T10:15:32.226Z,37.19
2023-02-09T10:17:59.145Z,37.31
2023-02-09T10:20:26.057Z,37.44
2023-02-09T10:22:52.970Z,37.44
2023-02-09T10:25:19.865Z,37.50
2023-02-09T10:27:46.779Z,37.56
2023-02-09T10:30:13.679Z,37.69
2023-02-09T10:32:40.631Z,37.81
2023-02-09T10:35:07.554Z,37.88
2023-02-09T10:37:34.492Z,37.94
2023-02-09T10:40:01.431Z,38.00
2023-02-09T10:42:28.375Z,38.06
2023-02-09T10:44:55.312Z,38.19
2023-02-09T10:47:22.269Z,38.25
2023-02-09T10:49:49.211Z,38.38
2023-02-09T10:52:22.693Z,38.38
2023-02-09T10:54:50.457Z,38.50
2023-02-09T10:57:17.380Z,38.50
2023-02-09T10:59:44.324Z,38.56
2023-02-09T11:02:13.289Z,38.38
2023-02-09T11:04:41.071Z,38.25
2023-02-09T11:07:08.046Z,38.19
2023-02-09T11:09:35.036Z,38.19
2023-02-09T11:12:01.975Z,38.25
2023-02-09T11:14:28.895Z,38.25
2023-02-09T11:16:55.846Z,38.25
2023-02-09T11:19:22.808Z,38.31
2023-02-09T11:21:53.127Z,38.31
2023-02-09T11:24:20.073Z,38.19
2023-02-09T11:26:46.999Z,38.00
2023-02-09T11:29:13.930Z,37.81
2023-02-09T11:31:40.940Z,37.56
2023-02-09T11:34:07.924Z,37.38
2023-02-09T11:36:34.866Z,37.19
2023-02-09T11:39:01.786Z,37.06
2023-02-09T11:41:28.706Z,36.81
2023-02-09T11:43:55.625Z,36.31
2023-02-09T11:46:22.640Z,36.56
2023-02-09T11:48:52.447Z,36.75
2023-02-09T11:51:19.428Z,36.94
2023-02-09T11:53:46.370Z,37.00
2023-02-09T11:56:13.499Z,37.13
2023-02-09T11:58:40.429Z,37.25
2023-02-09T12:01:15.545Z,37.31
2023-02-09T12:03:43.189Z,37.44
2023-02-09T12:06:10.109Z,37.50
2023-02-09T12:08:37.051Z,37.50
2023-02-09T12:11:04.414Z,37.56
2023-02-09T12:13:34.255Z,37.63
2023-02-09T12:16:01.260Z,37.75
2023-02-09T12:18:28.227Z,37.81
2023-02-09T12:20:55.145Z,37.88
2023-02-09T12:23:22.120Z,37.94
2023-02-09T12:25:51.313Z,38.00
2023-02-09T12:28:18.628Z,38.00
2023-02-09T12:30:45.895Z,38.00
2023-02-09T12:33:12.989Z,38.00
2023-02-09T12:35:39.913Z,37.94
2023-02-09T12:38:06.860Z,37.75
2023-02-09T12:40:33.785Z,37.69
2023-02-09T12:43:00.747Z,37.63
2023-02-09T12:45:27.724Z,37.63
2023-02-09T12:47:54.696Z,37.63
2023-02-09T12:50:21.626Z,37.50
2023-02-09T12:52:48.570Z,37.31
2023-02-09T12:55:15.503Z,37.13
2023-02-09T12:57:42.427Z,36.94
2023-02-09T13:00:09.360Z,36.75
2023-02-09T13:02:36.280Z,36.50
2023-02-09T13:05:03.218Z,36.31
2023-02-09T13:07:30.143Z,35.88
2023-02-09T13:09:57.086Z,35.69
2023-02-09T13:12:25.024Z,35.94
2023-02-09T13:14:52.039Z,36.00
2023-02-09T13:17:18.978Z,36.13
2023-02-09T13:19:48.169Z,36.25
2023-02-09T13:22:15.259Z,36.38
2023-02-09T13:24:42.199Z,36.50
2023-02-09T13:27:09.201Z,36.56
2023-02-09T13:29:36.150Z,36.69
2023-02-09T13:32:03.441Z,36.75
2023-02-09T13:34:30.399Z,36.81
2023-02-09T13:36:57.374Z,36.88
2023-02-09T13:39:24.298Z,36.94
2023-02-09T13:41:51.625Z,37.06
2023-02-09T13:44:18.590Z,37.13
2023-02-09T13:46:46.038Z,37.19
2023-02-09T13:49:12.979Z,37.31
2023-02-09T13:51:39.929Z,37.31
2023-02-09T13:54:06.887Z,37.38
2023-02-09T13:56:34.201Z,37.44
2023-02-09T13:59:01.142Z,37.44
2023-02-09T14:01:28.110Z,37.44
2023-02-09T14:03:58.880Z,37.44
2023-02-09T14:06:25.894Z,37.31
2023-02-09T14:08:52.805Z,37.13
2023-02-09T14:11:22.969Z,36.94
2023-02-09T14:13:52.929Z,36.75
2023-02-09T14:16:19.935Z,36.56
2023-02-09T14:18:46.884Z,36.38
2023-02-09T14:21:13.817Z,36.19
2023-02-09T14:23:40.739Z,36.06
2023-02-09T14:26:07.682Z,36.06
2023-02-09T14:28:34.677Z,35.94
2023-02-09T14:31:01.758Z,35.38
2023-02-09T14:33:28.688Z,35.31
2023-02-09T14:35:55.598Z,35.69
2023-02-09T14:38:22.578Z,35.94
2023-02-09T14:40:49.504Z,36.13
2023-02-09T14:43:16.418Z,36.31
2023-02-09T14:45:43.520Z,36.50
2023-02-09T14:48:10.572Z,36.63
2023-02-09T14:50:37.817Z,36.81
2023-02-09T14:53:04.755Z,36.88
2023-02-09T14:55:31.669Z,37.00
2023-02-09T14:57:58.597Z,37.06
2023-02-09T15:00:25.546Z,37.13
2023-02-09T15:02:52.911Z,37.19
2023-02-09T15:05:19.988Z,37.31
2023-02-09T15:07:46.964Z,37.38
2023-02-09T15:10:13.891Z,37.44
2023-02-09T15:12:40.834Z,37.50
2023-02-09T15:15:07.746Z,37.50
2023-02-09T15:17:34.660Z,37.44
2023-02-09T15:20:01.591Z,37.38
2023-02-09T15:22:28.551Z,37.44
2023-02-09T15:24:55.469Z,37.50
2023-02-09T15:27:25.947Z,37.56
2023-02-09T15:29:52.908Z,37.63
2023-02-09T15:32:19.845Z,37.56
2023-02-09T15:34:46.770Z,37.38
2023-02-09T15:37:13.735Z,37.38
2023-02-09T15:39:40.745Z,37.31
2023-02-09T15:42:07.689Z,37.25
2023-02-09T15:44:34.616Z,37.13
2023-02-09T15:47:03.810Z,36.88
2023-02-09T15:49:31.709Z,36.75
2023-02-09T15:51:58.665Z,36.56
2023-02-09T15:54:26.367Z,36.38
2023-02-09T15:56:53.318Z,36.25
2023-02-09T15:59:20.416Z,36.19
2023-02-09T16:01:53.923Z,36.31
2023-02-09T16:04:20.992Z,36.44
2023-02-09T16:06:47.964Z,36.44
2023-02-09T16:09:14.902Z,36.44
2023-02-09T16:11:41.872Z,36.50
2023-02-09T16:14:08.849Z,36.63
2023-02-09T16:16:35.824Z,36.75
2023-02-09T16:19:02.777Z,36.88
2023-02-09T16:21:31.375Z,37.00
2023-02-09T16:23:58.297Z,37.13
2023-02-09T16:26:25.222Z,37.19
2023-02-09T16:28:52.160Z,37.31
2023-02-09T16:31:19.155Z,37.44
2023-02-09T16:33:46.132Z,37.50
2023-02-09T16:36:13.094Z,37.56
2023-02-09T16:38:40.009Z,37.69
2023-02-09T16:41:07.336Z,37.56
2023-02-09T16:43:34.262Z,37.56
2023-02-09T16:46:04.008Z,37.56
2023-02-09T16:48:31.397Z,37.56
2023-02-09T16:50:58.304Z,37.63
2023-02-09T16:53:25.256Z,37.63
2023-02-09T16:55:52.649Z,37.56
2023-02-09T16:58:19.713Z,37.38
2023-02-09T17:00:46.666Z,37.19
2023-02-09T17:03:13.726Z,36.94
2023-02-09T17:05:40.753Z,36.75
2023-02-09T17:08:07.695Z,36.56
2023-02-09T17:10:34.618Z,36.44
2023-02-09T17:13:01.631Z,36.38
2023-02-09T17:15:30.961Z,36.38
2023-02-09T17:18:00.291Z,36.31
2023-02-09T17:20:28.696Z,36.38
2023-02-09T17:22:55.616Z,36.50
2023-02-09T17:25:22.646Z,36.63
2023-02-09T17:27:49.596Z,36.75
2023-02-09T17:30:16.540Z,36.88
2023-02-09T17:32:43.476Z,37.00
2023-02-09T17:35:10.392Z,37.06
2023-02-09T17:37:37.425Z,37.13
2023-02-09T17:40:04.365Z,37.19
2023-02-09T17:42:32.908Z,37.31
2023-02-09T17:44:59.895Z,37.38
2023-02-09T17:47:26.859Z,37.50
2023-02-09T17:49:53.887Z,37.63
2023-02-09T17:52:20.819Z,37.69
2023-02-09T17:54:47.723Z,37.81
2023-02-09T17:57:14.645Z,37.81
2023-02-09T17:59:41.595Z,37.88
2023-02-09T18:02:08.497Z,37.94
2023-02-09T18:04:35.459Z,37.81
2023-02-09T18:07:02.447Z,37.69
2023-02-09T18:09:29.374Z,37.63
2023-02-09T18:11:56.341Z,37.56
2023-02-09T18:14:23.439Z,37.38
2023-02-09T18:16:50.442Z,37.19
2023-02-09T18:19:17.409Z,37.00
2023-02-09T18:21:44.332Z,36.81
2023-02-09T18:24:11.269Z,36.69
2023-02-09T18:26:38.226Z,36.63
2023-02-09T18:29:06.252Z,36.56
2023-02-09T18:31:33.174Z,36.19
2023-02-09T18:34:00.148Z,36.13
2023-02-09T18:36:28.250Z,36.38
2023-02-09T18:38:55.181Z,36.56
2023-02-09T18:41:22.138Z,36.69
2023-02-09T18:43:49.831Z,36.81
2023-02-09T18:46:17.283Z,37.00
2023-02-09T18:48:44.237Z,37.13
2023-02-09T18:51:11.152Z,37.25
2023-02-09T18:53:38.078Z,37.38
2023-02-09T18:56:05.001Z,37.50
2023-02-09T18:58:36.159Z,37.56
2023-02-09T19:01:03.093Z,37.69
2023-02-09T19:03:29.998Z,37.75
2023-02-09T19:05:56.914Z,37.69
2023-02-09T19:08:23.851Z,37.56
2023-02-09T19:10:50.765Z,37.44
2023-02-09T19:13:17.699Z,37.31
2023-02-09T19:15:44.694Z,37.25
2023-02-09T19:18:11.672Z,37.06
2023-02-09T19:20:38.598Z,37.06
2023-02-09T19:23:05.561Z,37.13
2023-02-09T19:25:32.469Z,37.13
2023-02-09T19:27:59.432Z,37.13
2023-02-09T19:30:26.434Z,37.25
2023-02-09T19:32:53.389Z,37.31
2023-02-09T19:35:20.401Z,37.44
2023-02-09T19:37:47.362Z,37.50
2023-02-09T19:40:14.276Z,37.56
2023-02-09T19:42:41.225Z,37.69
2023-02-09T19:45:08.171Z,37.75
2023-02-09T19:47:35.153Z,37.81
2023-02-09T19:50:02.079Z,37.94
2023-02-09T19:52:29.138Z,38.00
2023-02-09T19:54:57.766Z,38.13
2023-02-09T19:57:24.928Z,38.19
2023-02-09T19:59:51.871Z,38.25
2023-02-09T20:02:18.793Z,38.25
2023-02-09T20:04:45.749Z,38.06
2023-02-09T20:07:12.667Z,37.75
2023-02-09T20:09:39.603Z,37.44
2023-02-09T20:12:06.525Z,37.06
2023-02-09T20:14:33.740Z,36.69
2023-02-09T20:17:00.889Z,36.31
2023-02-09T20:19:28.119Z,35.94
2023-02-09T20:21:55.036Z,35.63
2023-02-09T20:24:21.948Z,35.25
2023-02-09T20:26:48.939Z,34.88
2023-02-09T20:29:15.865Z,34.50
2023-02-09T20:31:42.834Z,34.19
2023-02-09T20:34:09.849Z,33.88
2023-02-09T20:36:36.760Z,33.50
2023-02-09T20:39:03.688Z,33.19
2023-02-09T20:41:30.601Z,32.94
2023-02-09T20:43:57.526Z,32.63
2023-02-09T20:46:30.274Z,32.38
2023-02-09T20:48:57.217Z,32.06
2023-02-09T20:51:27.642Z,31.75
2023-02-09T20:53:54.582Z,31.44
2023-02-09T20:56:23.031Z,31.19
2023-02-09T20:58:50.819Z,30.94
2023-02-09T21:01:17.811Z,30.38
2023-02-09T21:03:44.805Z,28.56
2023-02-09T21:06:12.167Z,27.44
2023-02-09T21:08:39.117Z,26.81
2023-02-09T21:11:06.289Z,26.44
2023-02-09T21:13:33.278Z,26.19
2023-02-09T21:16:00.399Z,26.00
2023-02-09T21:18:27.538Z,25.88
2023-02-09T21:20:54.454Z,25.69
2023-02-09T21:23:21.379Z,25.56
2023-02-09T21:25:48.294Z,25.44
2023-02-09T21:28:15.299Z,25.31
2023-02-09T21:30:42.241Z,25.25
2023-02-09T21:33:09.233Z,25.13
2023-02-09T21:35:39.180Z,25.00
2023-02-09T21:38:06.098Z,24.94
2023-02-09T21:40:33.040Z,24.81
2023-02-09T21:42:59.956Z,24.69
2023-02-09T21:45:26.863Z,24.63
2023-02-09T21:47:53.770Z,24.50
2023-02-09T21:50:20.680Z,24.38
2023-02-09T21:52:47.613Z,24.31
2023-02-09T21:55:14.549Z,24.19
2023-02-09T21:57:41.474Z,24.06
2023-02-09T22:00:08.409Z,24.00
2023-02-09T22:02:35.327Z,23.88
2023-02-09T22:05:02.245Z,23.81
2023-02-09T22:07:29.191Z,23.56
2023-02-09T22:09:56.123Z,23.25
2023-02-09T22:12:23.041Z,23.06
2023-02-09T22:14:49.943Z,22.88
2023-02-09T22:17:16.857Z,22.75
2023-02-09T22:19:43.791Z,22.69
2023-02-09T22:22:10.707Z,22.63
2023-02-09T22:24:38.455Z,22.50
2023-02-09T22:27:06.521Z,22.44
2023-02-09T22:29:34.529Z,22.38
2023-02-09T22:32:01.505Z,22.31
2023-02-09T22:34:29.099Z,22.25
2023-02-09T22:36:56.454Z,22.19
2023-02-09T22:39:23.708Z,22.13
2023-02-09T22:41:50.655Z,22.06
2023-02-09T22:44:17.586Z,22.00
2023-02-09T22:46:44.512Z,21.94
2023-02-09T22:49:11.471Z,21.88
2023-02-09T22:51:38.394Z,21.81
2023-02-09T22:54:06.605Z,21.69
2023-02-09T22:56:33.528Z,21.69
2023-02-09T22:59:00.443Z,21.63
2023-02-09T23:01:27.412Z,21.56
2023-02-09T23:03:54.432Z,21.50
2023-02-09T23:06:21.385Z,21.44
2023-02-09T23:08:48.319Z,21.38
2023-02-09T23:11:15.228Z,21.31
2023-02-09T23:13:42.241Z,21.19
2023-02-09T23:16:09.223Z,21.13
2023-02-09T23:18:36.221Z,21.00
2023-02-09T23:21:03.133Z,20.94
2023-02-09T23:23:30.040Z,20.88
2023-02-09T23:25:56.962Z,20.81
2023-02-09T23:28:24.027Z,20.75
2023-02-09T23:30:51.585Z,20.69
2023-02-09T23:33:18.537Z,20.63
2023-02-09T23:35:47.185Z,20.63
2023-02-09T23:38:14.304Z,20.56
2023-02-09T23:40:41.253Z,20.50
2023-02-09T23:43:08.230Z,20.44
2023-02-09T23:45:35.135Z,20.44
2023-02-09T23:48:02.684Z,20.38
2023-02-09T23:50:29.681Z,20.38
2023-02-09T23:52:56.586Z,20.31
2023-02-09T23:55:23.550Z,20.25
2023-02-09T23:57:56.522Z,20.25
